Terminal Aerodrome Forecast
Issued by NWS Sterling, VA

Current Version | Previous Version | Graphics & Text | Print | Product List | Glossary On
Versions: 1 2 3 4 5 6 7 8 9 10 11 12 13 14 15 16 17 18 19 20 21
759
FTUS41 KLWX 222053 AAA
TAFIAD
TAF AMD
KIAD 222053Z 2221/2324 33012G22KT P6SM SKC
     FM230000 34009KT P6SM SKC
     FM230400 34005KT P6SM SKC
     FM232000 19004KT P6SM FEW250=

USA.gov is the U.S. government's official web portal to all federal, state and local government web resources and services.